Baldwin, Kansas
Current Conditions -  °F | °C
As of 12:52 AM on Wednesday 22 Oct 2014 (Local Time) from KLWC Reporting Station
Clear Clear  
Wind Chill: 45°   Ceiling: Unl
Heat Index: 48°   Visibility: 10mi
Dew Point: 44°   Wind: 6mph
Humidity: 86%   Direction: 100°E
Pressure: 30.1"   Gusts: NA
Location:  38.8017°N, 95.2855°W
Report Text: KLWC 220552Z AUTO 10005KT 10SM CLR 09/07 A3010 RMK AO2 SLP192 T00890067 10167 20083 402390017 50001
Loading
Personal Weather Stations






























Interactive Weather Map
Tropical Storm Tracking
New forecast layout! Learn more

10-Day Weather Forecast

Advertisements
Track Severe Weather on mobile